Time;durP1;ratioP1;P1;durP2;ratioP2;P2;SDS_P1;SDS_P2;PMS_P1;PMS_P2;Temp;Humidity;BMP_temperature;BMP_pressure;BME280_temperature;BME280_humidity;BME280_pressure;Samples;Min_cycle;Max_cycle;Signal;HPM_P1;HPM_P2
2023/04/03 00:00:09;;;;;;;2.28;1.60;;;;;;;;;;5008956;28;20040;-66
2023/04/03 00:02:36;;;;;;;4.95;1.83;;;;;;;;;;5013548;28;20026;-67
2023/04/03 00:05:04;;;;;;;1.95;1.45;;;;;;;;;;5013501;28;20045;-67
2023/04/03 00:07:31;;;;;;;4.80;2.38;;;;;;;;;;5021064;28;20021;-66
2023/04/03 00:09:58;;;;;;;2.67;1.77;;;;;;;;;;5033296;28;20022;-67
2023/04/03 00:12:25;;;;;;;16.10;3.13;;;;;;;;;;5032889;28;20515;-67
2023/04/03 00:14:52;;;;;;;2.92;1.92;;;;;;;;;;5028334;28;20428;-66
2023/04/03 00:17:19;;;;;;;2.63;1.85;;;;;;;;;;5026296;28;20403;-63
2023/04/03 00:19:46;;;;;;;3.53;2.08;;;;;;;;;;5028084;28;20096;-66
2023/04/03 00:22:16;;;;;;;3.58;1.92;;;;;;;;;;5027502;28;20021;-67
2023/04/03 00:24:42;;;;;;;4.13;2.03;;;;;;;;;;5032769;28;20029;-67
2023/04/03 00:27:11;;;;;;;3.53;1.83;;;;;;;;;;5026981;28;20069;-66
2023/04/03 00:29:37;;;;;;;2.92;1.70;;;;;;;;;;5012927;28;20030;-67
2023/04/03 00:32:04;;;;;;;2.92;1.67;;;;;;;;;;5013278;28;20543;-67
2023/04/03 00:34:33;;;;;;;3.53;1.98;;;;;;;;;;5029395;28;20039;-67
2023/04/03 00:37:00;;;;;;;3.25;2.00;;;;;;;;;;5028144;28;20033;-67
2023/04/03 00:39:27;;;;;;;10.93;1.85;;;;;;;;;;5027063;28;20034;-67
2023/04/03 00:41:54;;;;;;;2.97;1.88;;;;;;;;;;5027692;28;20029;-67
2023/04/03 00:44:23;;;;;;;10.68;1.55;;;;;;;;;;5027175;28;20625;-67
2023/04/03 00:46:50;;;;;;;4.38;2.40;;;;;;;;;;5031238;28;20057;-66
2023/04/03 00:49:17;;;;;;;5.03;2.47;;;;;;;;;;5017711;28;20022;-67
2023/04/03 00:51:44;;;;;;;3.30;2.10;;;;;;;;;;5013002;28;20064;-68
2023/04/03 00:54:11;;;;;;;3.35;2.20;;;;;;;;;;5012891;28;20026;-66
2023/04/03 00:56:38;;;;;;;2.15;1.60;;;;;;;;;;5012720;28;20026;-68
2023/04/03 00:59:07;;;;;;;5.90;2.30;;;;;;;;;;5008677;28;20030;-67
2023/04/03 01:01:33;;;;;;;3.35;2.10;;;;;;;;;;5007455;28;20037;-66
2023/04/03 01:04:02;;;;;;;8.65;2.42;;;;;;;;;;5019536;28;20544;-68
2023/04/03 01:06:31;;;;;;;6.60;2.97;;;;;;;;;;5027084;28;20029;-67
2023/04/03 01:08:58;;;;;;;4.70;2.30;;;;;;;;;;5030003;28;20423;-65
2023/04/03 01:11:25;;;;;;;5.55;2.67;;;;;;;;;;5032322;28;20381;-68
2023/04/03 01:13:52;;;;;;;4.45;2.33;;;;;;;;;;5032050;28;20416;-65
2023/04/03 01:16:19;;;;;;;9.23;2.80;;;;;;;;;;5032173;28;20017;-66
2023/04/03 01:18:49;;;;;;;5.38;3.20;;;;;;;;;;5032047;28;20448;-69
2023/04/03 01:21:34;;;;;;;3.92;2.08;;;;;;;;;;5029832;28;20088;-68
2023/04/03 01:24:07;;;;;;;5.88;2.72;;;;;;;;;;5026880;28;20061;-67
2023/04/03 01:26:35;;;;;;;2.47;1.75;;;;;;;;;;5027033;28;20112;-65
2023/04/03 01:29:02;;;;;;;3.88;1.58;;;;;;;;;;5025138;28;20025;-65
2023/04/03 01:31:47;;;;;;;3.28;1.80;;;;;;;;;;5028467;28;20026;-66
2023/04/03 01:34:14;;;;;;;3.90;2.13;;;;;;;;;;5032187;28;20026;-65
2023/04/03 01:36:41;;;;;;;7.95;2.20;;;;;;;;;;5031608;28;20028;-65
2023/04/03 01:39:08;;;;;;;6.13;2.55;;;;;;;;;;5031446;28;20419;-66
2023/04/03 01:41:35;;;;;;;4.55;2.38;;;;;;;;;;5022487;28;20033;-65
2023/04/03 01:44:04;;;;;;;3.50;2.55;;;;;;;;;;5015576;28;20030;-66
2023/04/03 01:46:34;;;;;;;5.60;2.08;;;;;;;;;;5010181;28;20125;-65
2023/04/03 01:49:01;;;;;;;1.92;1.45;;;;;;;;;;5011227;28;20591;-65
2023/04/03 01:51:31;;;;;;;9.00;2.03;;;;;;;;;;5017408;28;20034;-64
2023/04/03 01:54:08;;;;;;;7.50;2.20;;;;;;;;;;5029525;28;20345;-65
2023/04/03 01:56:38;;;;;;;5.17;1.83;;;;;;;;;;5014250;28;20120;-65
2023/04/03 01:59:10;;;;;;;5.50;2.70;;;;;;;;;;5031546;28;20075;-65
2023/04/03 02:01:36;;;;;;;5.00;2.77;;;;;;;;;;5019265;28;20033;-65
2023/04/03 02:04:03;;;;;;;3.17;2.27;;;;;;;;;;5012614;28;20116;-65
2023/04/03 02:06:30;;;;;;;2.90;2.00;;;;;;;;;;5008979;28;20041;-65
2023/04/03 02:08:57;;;;;;;3.53;1.90;;;;;;;;;;5007605;28;20512;-65
2023/04/03 02:11:23;;;;;;;4.63;2.40;;;;;;;;;;5009351;28;20034;-65
2023/04/03 02:13:50;;;;;;;3.07;2.10;;;;;;;;;;5007570;28;20551;-65
2023/04/03 02:16:17;;;;;;;5.17;2.23;;;;;;;;;;5027004;28;20033;-65
2023/04/03 02:18:44;;;;;;;3.67;2.07;;;;;;;;;;5014433;28;20025;-65
2023/04/03 02:21:10;;;;;;;3.87;2.67;;;;;;;;;;5012176;28;20038;-65
2023/04/03 02:23:37;;;;;;;13.57;2.70;;;;;;;;;;5012100;28;20026;-64
2023/04/03 02:26:14;;;;;;;3.33;2.30;;;;;;;;;;5012282;28;20034;-65
2023/04/03 02:28:41;;;;;;;3.83;2.17;;;;;;;;;;5009905;28;20033;-65
2023/04/03 02:31:08;;;;;;;3.83;2.60;;;;;;;;;;5007741;28;20026;-65
2023/04/03 02:33:38;;;;;;;1.77;1.30;;;;;;;;;;5026852;28;20048;-65
2023/04/03 02:36:05;;;;;;;3.33;1.80;;;;;;;;;;5015580;28;20076;-64
2023/04/03 02:38:32;;;;;;;1.17;0.93;;;;;;;;;;5018555;28;20061;-64
2023/04/03 02:41:03;;;;;;;1.93;1.40;;;;;;;;;;5011831;28;20436;-64
2023/04/03 02:43:30;;;;;;;3.93;1.60;;;;;;;;;;5012216;28;20022;-63
2023/04/03 02:45:57;;;;;;;3.10;2.03;;;;;;;;;;5011935;28;20408;-63
2023/04/03 02:48:24;;;;;;;2.80;1.83;;;;;;;;;;5012947;28;20022;-63
2023/04/03 02:50:51;;;;;;;2.07;1.60;;;;;;;;;;5010388;28;20044;-64
2023/04/03 02:53:18;;;;;;;3.00;1.77;;;;;;;;;;5029628;28;20055;-64
2023/04/03 02:55:48;;;;;;;4.33;2.67;;;;;;;;;;5030344;28;20033;-63
2023/04/03 02:58:15;;;;;;;4.53;2.50;;;;;;;;;;5030085;28;20033;-64
2023/04/03 03:00:42;;;;;;;7.47;2.33;;;;;;;;;;5031023;28;20484;-64
2023/04/03 03:03:09;;;;;;;6.47;3.00;;;;;;;;;;5035213;28;20026;-64
2023/04/03 03:05:37;;;;;;;4.07;2.07;;;;;;;;;;5034928;28;20033;-64
2023/04/03 03:08:03;;;;;;;3.43;1.70;;;;;;;;;;5033184;28;20030;-64
2023/04/03 03:10:30;;;;;;;8.27;2.90;;;;;;;;;;5030477;28;20034;-66
2023/04/03 03:12:57;;;;;;;2.90;1.67;;;;;;;;;;5015740;28;20037;-64
2023/04/03 03:15:24;;;;;;;2.77;1.97;;;;;;;;;;5011155;28;20538;-64
2023/04/03 03:17:50;;;;;;;4.13;2.33;;;;;;;;;;5019323;28;20445;-66
2023/04/03 03:20:17;;;;;;;2.57;1.77;;;;;;;;;;5010329;28;20033;-65
2023/04/03 03:22:44;;;;;;;3.00;2.07;;;;;;;;;;5010136;28;20285;-65
2023/04/03 03:25:11;;;;;;;3.07;1.67;;;;;;;;;;5014965;28;20104;-65
2023/04/03 03:27:38;;;;;;;8.50;1.80;;;;;;;;;;5015010;28;20045;-65
2023/04/03 03:30:06;;;;;;;4.13;1.80;;;;;;;;;;5024198;28;20018;-65
2023/04/03 03:32:33;;;;;;;4.93;1.43;;;;;;;;;;5015131;28;20026;-66
2023/04/03 03:35:04;;;;;;;3.10;2.10;;;;;;;;;;5021740;28;20021;-63
2023/04/03 03:37:31;;;;;;;3.03;1.47;;;;;;;;;;5027821;28;20033;-63
2023/04/03 03:39:58;;;;;;;3.77;1.80;;;;;;;;;;5027759;28;20037;-63
2023/04/03 03:42:25;;;;;;;3.07;2.23;;;;;;;;;;5029521;28;20026;-65
2023/04/03 03:44:51;;;;;;;1.97;1.70;;;;;;;;;;5023551;28;20117;-64
2023/04/03 03:47:18;;;;;;;4.43;2.60;;;;;;;;;;5028988;28;20041;-65
2023/04/03 03:49:45;;;;;;;5.67;2.37;;;;;;;;;;5026487;28;20122;-64
2023/04/03 03:52:12;;;;;;;2.53;1.70;;;;;;;;;;5020146;28;20034;-64
2023/04/03 03:54:39;;;;;;;1.60;1.43;;;;;;;;;;5015188;28;20034;-65
2023/04/03 03:57:06;;;;;;;13.73;1.93;;;;;;;;;;5014460;28;20022;-64
2023/04/03 03:59:32;;;;;;;3.03;1.90;;;;;;;;;;5012260;28;20120;-65
2023/04/03 04:02:00;;;;;;;2.43;1.77;;;;;;;;;;5023850;28;20040;-67
2023/04/03 04:04:26;;;;;;;2.67;1.60;;;;;;;;;;5008649;28;20056;-63
2023/04/03 04:06:53;;;;;;;2.30;1.63;;;;;;;;;;5009375;28;20041;-64
2023/04/03 04:09:20;;;;;;;2.43;1.77;;;;;;;;;;5013274;28;20088;-64
2023/04/03 04:11:47;;;;;;;15.87;2.03;;;;;;;;;;5013764;28;20068;-64
2023/04/03 04:14:13;;;;;;;10.40;3.03;;;;;;;;;;5030089;28;20022;-65
2023/04/03 04:16:40;;;;;;;4.33;2.33;;;;;;;;;;5014373;28;20381;-64
2023/04/03 04:19:07;;;;;;;2.67;1.97;;;;;;;;;;5018096;28;20044;-64
2023/04/03 04:21:34;;;;;;;3.57;2.37;;;;;;;;;;5012684;28;20026;-64
2023/04/03 04:24:01;;;;;;;4.60;2.70;;;;;;;;;;5008614;28;20081;-64
2023/04/03 04:26:28;;;;;;;2.10;1.60;;;;;;;;;;5008070;28;20112;-64
2023/04/03 04:28:55;;;;;;;5.97;2.70;;;;;;;;;;5008510;28;20030;-64
2023/04/03 04:31:21;;;;;;;5.27;2.80;;;;;;;;;;5027164;28;20022;-64
2023/04/03 04:33:48;;;;;;;7.17;2.90;;;;;;;;;;5033205;28;20049;-64
2023/04/03 04:36:15;;;;;;;4.87;2.63;;;;;;;;;;5021808;28;20029;-64
2023/04/03 04:38:42;;;;;;;2.97;1.87;;;;;;;;;;5013329;28;20030;-64
2023/04/03 04:41:09;;;;;;;5.43;2.57;;;;;;;;;;5013301;28;20033;-64
2023/04/03 04:43:36;;;;;;;3.90;2.50;;;;;;;;;;5010544;28;20583;-64
2023/04/03 04:46:02;;;;;;;4.57;2.70;;;;;;;;;;5022520;28;20056;-65
2023/04/03 04:48:29;;;;;;;3.07;2.30;;;;;;;;;;5027643;28;20025;-64
2023/04/03 04:50:56;;;;;;;2.77;1.77;;;;;;;;;;5027895;28;20025;-64
2023/04/03 04:53:23;;;;;;;3.77;2.37;;;;;;;;;;5029274;28;20025;-64
2023/04/03 04:55:49;;;;;;;2.10;1.03;;;;;;;;;;5032610;28;20125;-64
2023/04/03 04:58:16;;;;;;;4.07;2.13;;;;;;;;;;5032767;28;20025;-64
2023/04/03 05:00:43;;;;;;;6.40;3.37;;;;;;;;;;5032648;28;20021;-64
2023/04/03 05:03:10;;;;;;;6.30;3.10;;;;;;;;;;5032753;28;20024;-63
2023/04/03 05:05:37;;;;;;;4.40;2.23;;;;;;;;;;5030545;28;20038;-64
2023/04/03 05:08:04;;;;;;;2.70;1.60;;;;;;;;;;5020743;28;20083;-64
2023/04/03 05:10:31;;;;;;;4.13;1.90;;;;;;;;;;5007807;28;20018;-63
2023/04/03 05:12:58;;;;;;;2.83;2.30;;;;;;;;;;5007784;28;20140;-64
2023/04/03 05:15:25;;;;;;;3.43;1.93;;;;;;;;;;5008427;28;20041;-63
2023/04/03 05:17:51;;;;;;;7.50;2.27;;;;;;;;;;5013854;28;20084;-67
2023/04/03 05:20:18;;;;;;;8.07;2.70;;;;;;;;;;5032550;28;20090;-64
2023/04/03 05:22:45;;;;;;;4.57;1.97;;;;;;;;;;5028240;28;20021;-65
2023/04/03 05:25:12;;;;;;;4.13;2.20;;;;;;;;;;4999051;28;20041;-63
2023/04/03 05:27:39;;;;;;;13.23;3.23;;;;;;;;;;5026129;28;20056;-63
2023/04/03 05:30:06;;;;;;;6.80;2.50;;;;;;;;;;5027587;28;20111;-63
2023/04/03 05:32:33;;;;;;;3.97;2.27;;;;;;;;;;5027513;28;20029;-62
2023/04/03 05:35:00;;;;;;;4.70;3.47;;;;;;;;;;5027388;28;20516;-62
2023/04/03 05:37:27;;;;;;;4.00;3.03;;;;;;;;;;5021867;28;20026;-62
2023/04/03 05:39:53;;;;;;;4.13;2.20;;;;;;;;;;5012633;28;20073;-62
2023/04/03 05:42:20;;;;;;;5.07;2.87;;;;;;;;;;5027282;28;20030;-62
2023/04/03 05:44:47;;;;;;;8.83;3.47;;;;;;;;;;5032161;28;20366;-62
2023/04/03 05:47:14;;;;;;;3.27;2.33;;;;;;;;;;5028686;28;20042;-63
2023/04/03 05:49:41;;;;;;;6.43;3.53;;;;;;;;;;5013398;28;20029;-63
2023/04/03 05:52:18;;;;;;;3.23;2.37;;;;;;;;;;5026620;28;20038;-63
2023/04/03 05:54:47;;;;;;;2.80;2.13;;;;;;;;;;5027018;28;20044;-63
2023/04/03 05:57:15;;;;;;;5.37;2.30;;;;;;;;;;5021645;28;20392;-63
2023/04/03 05:59:43;;;;;;;6.33;2.87;;;;;;;;;;5007323;28;20057;-65
2023/04/03 06:02:11;;;;;;;4.67;2.87;;;;;;;;;;5012027;28;20436;-63
2023/04/03 06:04:38;;;;;;;10.67;3.07;;;;;;;;;;5012365;28;20026;-63
2023/04/03 06:07:05;;;;;;;5.33;2.70;;;;;;;;;;5012138;28;20367;-63
2023/04/03 06:09:32;;;;;;;2.93;2.30;;;;;;;;;;5012185;28;20026;-63
2023/04/03 06:11:58;;;;;;;3.93;2.17;;;;;;;;;;5012268;28;20018;-63
2023/04/03 06:14:26;;;;;;;4.20;2.87;;;;;;;;;;5006959;28;20448;-64
2023/04/03 06:16:53;;;;;;;3.63;2.97;;;;;;;;;;5010443;28;20025;-63
2023/04/03 06:19:20;;;;;;;9.87;3.23;;;;;;;;;;5006804;28;20072;-64
2023/04/03 06:21:47;;;;;;;2.47;1.90;;;;;;;;;;5006811;28;20080;-63
2023/04/03 06:24:17;;;;;;;3.70;2.20;;;;;;;;;;5010937;28;20052;-63
2023/04/03 06:26:45;;;;;;;2.23;1.73;;;;;;;;;;5012716;28;20037;-65
2023/04/03 06:29:12;;;;;;;4.50;1.93;;;;;;;;;;5016008;28;20022;-63
2023/04/03 06:31:39;;;;;;;3.50;2.37;;;;;;;;;;5015880;28;20487;-63
2023/04/03 06:34:09;;;;;;;3.83;2.97;;;;;;;;;;5015415;28;20469;-63
2023/04/03 06:36:35;;;;;;;3.33;2.50;;;;;;;;;;5011152;28;20030;-63
2023/04/03 06:39:03;;;;;;;4.63;2.13;;;;;;;;;;5010636;28;20298;-63
2023/04/03 06:41:30;;;;;;;2.77;1.97;;;;;;;;;;5010342;28;20044;-63
2023/04/03 06:43:57;;;;;;;4.13;2.73;;;;;;;;;;5010146;28;20033;-63
2023/04/03 06:46:24;;;;;;;2.63;1.93;;;;;;;;;;5013868;28;20045;-63
2023/04/03 06:48:52;;;;;;;4.27;2.80;;;;;;;;;;5015470;28;20108;-63
2023/04/03 06:51:25;;;;;;;5.67;3.53;;;;;;;;;;5015022;28;20358;-63
2023/04/03 06:53:53;;;;;;;3.63;2.17;;;;;;;;;;5015625;28;20025;-64
2023/04/03 06:56:20;;;;;;;3.87;2.57;;;;;;;;;;5015349;28;20022;-63
2023/04/03 06:58:47;;;;;;;5.03;2.83;;;;;;;;;;5011316;28;20025;-63
2023/04/03 07:01:14;;;;;;;4.30;3.20;;;;;;;;;;5009961;28;20057;-63
2023/04/03 07:03:41;;;;;;;7.87;2.33;;;;;;;;;;5010206;28;20475;-63
2023/04/03 07:06:11;;;;;;;4.70;3.23;;;;;;;;;;5009864;28;20026;-63
2023/04/03 07:08:38;;;;;;;13.40;2.53;;;;;;;;;;5013255;28;20026;-63
2023/04/03 07:11:06;;;;;;;5.03;3.10;;;;;;;;;;5015236;28;20129;-63
2023/04/03 07:13:32;;;;;;;4.30;2.83;;;;;;;;;;5015113;28;20112;-63
2023/04/03 07:16:00;;;;;;;5.00;3.70;;;;;;;;;;5015026;28;20528;-63
2023/04/03 07:18:26;;;;;;;5.70;3.57;;;;;;;;;;5014729;28;20469;-63
2023/04/03 07:20:53;;;;;;;5.60;3.10;;;;;;;;;;5011494;28;20049;-63
2023/04/03 07:23:20;;;;;;;5.20;3.17;;;;;;;;;;5009652;28;20110;-63
2023/04/03 07:25:47;;;;;;;2.87;2.00;;;;;;;;;;5009082;28;20477;-63
2023/04/03 07:28:15;;;;;;;5.53;3.63;;;;;;;;;;5009407;28;20076;-63
2023/04/03 07:30:49;;;;;;;3.70;2.63;;;;;;;;;;5011980;28;20113;-63
2023/04/03 07:33:16;;;;;;;8.98;3.17;;;;;;;;;;5014821;28;20373;-63
2023/04/03 07:35:43;;;;;;;4.20;2.87;;;;;;;;;;5014516;28;20350;-63
2023/04/03 07:38:10;;;;;;;3.60;2.33;;;;;;;;;;5013400;28;20014;-63
2023/04/03 07:40:37;;;;;;;9.77;2.43;;;;;;;;;;5014344;28;20113;-64
2023/04/03 07:43:05;;;;;;;3.67;2.40;;;;;;;;;;5011586;28;20444;-63
2023/04/03 07:45:33;;;;;;;3.93;2.67;;;;;;;;;;5009277;28;20054;-63
2023/04/03 07:47:59;;;;;;;4.40;2.83;;;;;;;;;;5014457;28;20408;-63
2023/04/03 07:50:27;;;;;;;5.97;2.87;;;;;;;;;;5029015;28;20040;-63
2023/04/03 07:52:56;;;;;;;14.43;3.73;;;;;;;;;;5030940;28;20473;-63
2023/04/03 07:55:22;;;;;;;8.33;4.00;;;;;;;;;;5033993;28;20026;-64
2023/04/03 07:57:49;;;;;;;7.13;3.50;;;;;;;;;;5033670;28;20037;-63
2023/04/03 08:00:17;;;;;;;4.10;3.10;;;;;;;;;;5033662;28;20032;-63
2023/04/03 08:02:50;;;;;;;4.83;2.60;;;;;;;;;;5033866;28;20444;-63
2023/04/03 08:05:17;;;;;;;3.23;2.30;;;;;;;;;;5014197;28;20555;-63
2023/04/03 08:07:45;;;;;;;4.90;3.23;;;;;;;;;;5008931;28;20030;-64
2023/04/03 08:10:11;;;;;;;3.93;2.63;;;;;;;;;;5008652;28;20029;-63
2023/04/03 08:12:38;;;;;;;5.57;3.13;;;;;;;;;;5008755;28;20084;-63
2023/04/03 08:15:06;;;;;;;12.73;3.87;;;;;;;;;;5010062;28;20076;-63
2023/04/03 08:17:32;;;;;;;6.03;3.20;;;;;;;;;;5013818;28;20523;-63
2023/04/03 08:19:59;;;;;;;5.57;3.40;;;;;;;;;;5014022;28;20053;-64
2023/04/03 08:22:26;;;;;;;5.50;3.60;;;;;;;;;;5013500;28;20547;-64
2023/04/03 08:24:53;;;;;;;3.67;2.30;;;;;;;;;;5023216;28;20112;-63
2023/04/03 08:27:19;;;;;;;11.37;3.80;;;;;;;;;;5031444;28;20030;-64
2023/04/03 08:29:46;;;;;;;4.83;2.87;;;;;;;;;;5028052;28;20463;-64
2023/04/03 08:32:13;;;;;;;8.27;4.13;;;;;;;;;;5027895;28;20025;-64
2023/04/03 08:34:39;;;;;;;4.70;2.33;;;;;;;;;;5027645;28;20443;-64
2023/04/03 08:37:06;;;;;;;7.50;3.10;;;;;;;;;;5029128;28;20033;-63
2023/04/03 08:39:36;;;;;;;3.70;2.60;;;;;;;;;;5029016;28;20568;-64
2023/04/03 08:42:07;;;;;;;3.53;2.40;;;;;;;;;;5013326;28;20029;-63
2023/04/03 08:44:45;;;;;;;2.90;2.27;;;;;;;;;;5013275;28;20021;-62
2023/04/03 08:47:15;;;;;;;10.67;3.23;;;;;;;;;;5013198;28;20117;-64
2023/04/03 08:49:47;;;;;;;3.03;1.87;;;;;;;;;;5011000;28;20026;-64
2023/04/03 08:52:16;;;;;;;9.00;2.83;;;;;;;;;;5007914;28;20476;-64
2023/04/03 08:54:42;;;;;;;4.40;2.70;;;;;;;;;;5012992;28;20116;-64
2023/04/03 08:57:11;;;;;;;4.23;2.93;;;;;;;;;;5027721;28;20424;-63
2023/04/03 08:59:39;;;;;;;2.77;2.37;;;;;;;;;;5028275;28;20025;-63
2023/04/03 09:02:18;;;;;;;5.10;3.40;;;;;;;;;;5032452;28;20107;-64
2023/04/03 09:04:45;;;;;;;4.73;2.50;;;;;;;;;;5013106;28;20121;-64
2023/04/03 09:07:20;;;;;;;3.13;2.30;;;;;;;;;;5012894;28;20034;-64
2023/04/03 09:09:49;;;;;;;5.40;3.13;;;;;;;;;;5018776;28;20036;-63
2023/04/03 09:12:19;;;;;;;3.20;2.27;;;;;;;;;;5029826;28;20487;-64
2023/04/03 09:14:49;;;;;;;4.60;2.50;;;;;;;;;;5027418;28;20416;-64
2023/04/03 09:17:20;;;;;;;2.90;2.27;;;;;;;;;;5027231;28;20053;-64
2023/04/03 09:19:47;;;;;;;9.33;4.17;;;;;;;;;;5027027;28;20018;-63
2023/04/03 09:22:26;;;;;;;3.33;2.43;;;;;;;;;;5029181;28;20018;-63
2023/04/03 09:24:58;;;;;;;4.20;3.17;;;;;;;;;;5032129;28;20032;-63
2023/04/03 09:27:25;;;;;;;4.30;3.53;;;;;;;;;;5032364;28;20033;-63
2023/04/03 09:29:54;;;;;;;6.13;3.07;;;;;;;;;;5032039;28;20392;-65
2023/04/03 09:32:27;;;;;;;5.57;3.20;;;;;;;;;;5032441;28;20101;-64
2023/04/03 09:34:54;;;;;;;6.30;2.97;;;;;;;;;;5028293;28;20049;-63
2023/04/03 09:37:42;;;;;;;4.47;2.57;;;;;;;;;;5008374;28;20038;-64
2023/04/03 09:40:35;;;;;;;5.33;3.27;;;;;;;;;;5007955;28;20129;-64
2023/04/03 09:43:03;;;;;;;7.07;3.70;;;;;;;;;;4984364;28;20045;-64
2023/04/03 09:45:31;;;;;;;8.73;3.33;;;;;;;;;;5010828;28;20125;-64
2023/04/03 09:48:17;;;;;;;8.67;3.90;;;;;;;;;;5012372;28;20029;-64
2023/04/03 09:51:04;;;;;;;5.73;3.00;;;;;;;;;;5012490;28;20021;-64
2023/04/03 09:53:33;;;;;;;3.17;2.37;;;;;;;;;;5011943;28;20025;-64
2023/04/03 09:56:03;;;;;;;3.17;2.30;;;;;;;;;;5012166;28;20470;-64
2023/04/03 09:58:33;;;;;;;3.77;3.07;;;;;;;;;;5006968;28;20045;-63
2023/04/03 10:01:01;;;;;;;3.93;2.10;;;;;;;;;;5007337;28;20029;-64
2023/04/03 10:03:32;;;;;;;4.20;2.87;;;;;;;;;;5011344;28;20084;-63
2023/04/03 10:05:59;;;;;;;5.17;2.90;;;;;;;;;;5010805;28;20033;-64
2023/04/03 10:08:28;;;;;;;5.23;2.17;;;;;;;;;;5016169;28;20022;-63
2023/04/03 10:11:11;;;;;;;3.93;2.30;;;;;;;;;;5016433;28;20044;-63
2023/04/03 10:13:50;;;;;;;9.23;3.57;;;;;;;;;;5016162;28;20045;-64
2023/04/03 10:16:19;;;;;;;6.07;2.97;;;;;;;;;;5016038;28;20400;-64
2023/04/03 10:18:47;;;;;;;8.13;2.73;;;;;;;;;;5014900;28;20079;-62
2023/04/03 10:21:17;;;;;;;7.20;3.87;;;;;;;;;;5010791;28;20501;-64
2023/04/03 10:23:46;;;;;;;2.60;1.87;;;;;;;;;;5010682;28;20018;-65
2023/04/03 10:26:12;;;;;;;2.77;2.10;;;;;;;;;;5010455;28;20481;-64
2023/04/03 10:28:44;;;;;;;3.03;1.77;;;;;;;;;;5011098;28;20402;-64
2023/04/03 10:31:16;;;;;;;5.47;2.57;;;;;;;;;;5015698;28;20026;-64
2023/04/03 10:34:01;;;;;;;3.20;2.00;;;;;;;;;;5015718;28;20022;-64
2023/04/03 10:36:46;;;;;;;3.13;2.05;;;;;;;;;;5015865;28;20034;-64
2023/04/03 10:39:19;;;;;;;2.47;1.90;;;;;;;;;;5015177;28;20428;-64
2023/04/03 10:41:57;;;;;;;2.80;2.03;;;;;;;;;;5013020;28;20036;-63
2023/04/03 10:44:42;;;;;;;10.07;3.50;;;;;;;;;;5010256;28;20022;-65
2023/04/03 10:47:38;;;;;;;5.75;2.65;;;;;;;;;;5010299;28;20038;-65
2023/04/03 10:50:04;;;;;;;;;;;;;;;;;;4998062;28;20128;-63
2023/04/03 10:52:43;;;;;;;4.27;3.07;;;;;;;;;;5014089;28;19906;-64
2023/04/03 10:55:22;;;;;;;13.17;3.23;;;;;;;;;;5018329;28;20048;-63
2023/04/03 10:57:50;;;;;;;4.30;2.93;;;;;;;;;;5035145;28;20436;-64
2023/04/03 11:00:19;;;;;;;7.80;4.17;;;;;;;;;;5034922;28;20021;-63
2023/04/03 11:02:55;;;;;;;8.23;2.83;;;;;;;;;;5034931;28;20026;-63
2023/04/03 11:05:42;;;;;;;7.90;3.07;;;;;;;;;;5029182;28;20381;-63
2023/04/03 11:08:15;;;;;;;5.07;3.13;;;;;;;;;;5022528;28;20478;-64
2023/04/03 11:10:51;;;;;;;3.60;2.90;;;;;;;;;;5029790;28;20029;-63
2023/04/03 11:13:22;;;;;;;5.00;3.03;;;;;;;;;;5029898;28;20021;-63
2023/04/03 11:15:50;;;;;;;4.07;2.47;;;;;;;;;;5034102;28;20111;-64
2023/04/03 11:18:20;;;;;;;5.13;2.77;;;;;;;;;;5034632;28;20083;-63
2023/04/03 11:21:07;;;;;;;4.60;3.10;;;;;;;;;;5034937;28;20040;-63
2023/04/03 11:23:37;;;;;;;5.57;3.03;;;;;;;;;;5034587;28;20026;-63
2023/04/03 11:26:09;;;;;;;15.57;3.10;;;;;;;;;;5032167;28;20104;-63
2023/04/03 11:28:37;;;;;;;5.13;3.37;;;;;;;;;;5029509;28;20034;-63
2023/04/03 11:31:27;;;;;;;5.70;3.10;;;;;;;;;;5029280;28;20485;-64
2023/04/03 11:34:14;;;;;;;3.27;2.67;;;;;;;;;;5029236;28;20380;-65
2023/04/03 11:36:43;;;;;;;6.97;3.07;;;;;;;;;;5031516;28;20021;-64
2023/04/03 11:39:29;;;;;;;3.70;2.30;;;;;;;;;;5034427;28;20513;-64
2023/04/03 11:41:56;;;;;;;4.97;2.92;;;;;;;;;;5034344;28;20025;-64
2023/04/03 11:44:26;;;;;;;3.93;2.90;;;;;;;;;;5033908;28;20086;-64
2023/04/03 11:46:59;;;;;;;4.73;2.53;;;;;;;;;;5033789;28;20552;-63
2023/04/03 11:49:44;;;;;;;5.07;3.23;;;;;;;;;;5030287;28;20037;-64
2023/04/03 11:52:11;;;;;;;4.32;2.90;;;;;;;;;;5028777;28;20033;-62
2023/04/03 11:54:41;;;;;;;5.30;2.97;;;;;;;;;;5028410;28;20021;-62
2023/04/03 11:57:26;;;;;;;3.37;2.43;;;;;;;;;;5028490;28;20033;-63
2023/04/03 11:59:53;;;;;;;7.63;2.38;;;;;;;;;;5033535;28;20033;-64
2023/04/03 12:02:36;;;;;;;5.00;3.20;;;;;;;;;;5034079;28;20021;-61
2023/04/03 12:05:21;;;;;;;5.73;3.00;;;;;;;;;;5033526;28;20028;-65
2023/04/03 12:08:08;;;;;;;5.00;3.05;;;;;;;;;;5033916;28;20041;-63
2023/04/03 12:10:35;;;;;;;6.60;3.40;;;;;;;;;;5031969;28;20021;-63
2023/04/03 12:13:03;;;;;;;7.43;3.63;;;;;;;;;;5028352;28;20032;-63
2023/04/03 12:15:47;;;;;;;4.73;2.97;;;;;;;;;;5027879;28;20103;-63
2023/04/03 12:18:32;;;;;;;10.63;4.37;;;;;;;;;;5028283;28;20033;-63
2023/04/03 12:21:00;;;;;;;5.20;3.60;;;;;;;;;;5029930;28;20032;-63
2023/04/03 12:23:31;;;;;;;11.30;5.20;;;;;;;;;;5033595;28;20030;-63
2023/04/03 12:26:04;;;;;;;23.20;4.40;;;;;;;;;;5032319;28;20547;-63
2023/04/03 12:28:37;;;;;;;6.70;4.07;;;;;;;;;;5033435;28;20028;-63
2023/04/03 12:31:06;;;;;;;10.53;4.83;;;;;;;;;;5033295;28;20083;-64
2023/04/03 12:33:40;;;;;;;13.80;4.53;;;;;;;;;;5030159;28;21364;-62
2023/04/03 12:36:16;;;;;;;6.50;3.87;;;;;;;;;;5027749;28;20773;-63
2023/04/03 12:38:55;;;;;;;9.83;4.80;;;;;;;;;;5027993;28;20018;-63
2023/04/03 12:41:28;;;;;;;5.27;3.50;;;;;;;;;;5027805;28;20057;-63
2023/04/03 12:43:58;;;;;;;37.57;5.33;;;;;;;;;;5030880;28;20535;-64
2023/04/03 12:46:27;;;;;;;6.53;3.93;;;;;;;;;;5032846;28;20067;-63
2023/04/03 12:48:58;;;;;;;7.33;4.20;;;;;;;;;;5033081;28;20017;-64
2023/04/03 12:51:45;;;;;;;5.07;3.37;;;;;;;;;;5032826;28;20079;-64
2023/04/03 12:54:17;;;;;;;7.67;3.20;;;;;;;;;;5032700;28;20100;-64
2023/04/03 12:56:43;;;;;;;6.43;3.63;;;;;;;;;;5027668;28;20611;-64
2023/04/03 12:59:17;;;;;;;6.43;3.33;;;;;;;;;;5012613;28;20030;-63
2023/04/03 13:01:44;;;;;;;3.97;2.90;;;;;;;;;;5017025;28;20358;-63
2023/04/03 13:04:12;;;;;;;8.43;4.03;;;;;;;;;;5027388;28;20045;-63
2023/04/03 13:06:43;;;;;;;13.60;4.80;;;;;;;;;;5031611;28;20435;-63
2023/04/03 13:09:23;;;;;;;7.30;4.40;;;;;;;;;;5032581;28;20074;-63
2023/04/03 13:11:52;;;;;;;13.13;4.93;;;;;;;;;;5032136;28;20091;-63
2023/04/03 13:14:21;;;;;;;7.50;3.40;;;;;;;;;;5032624;28;20029;-63
2023/04/03 13:17:04;;;;;;;9.30;5.10;;;;;;;;;;5032439;28;20032;-63
2023/04/03 13:19:31;;;;;;;15.27;3.80;;;;;;;;;;5027117;28;20037;-64
2023/04/03 13:22:00;;;;;;;10.50;4.50;;;;;;;;;;5027056;28;20428;-64
2023/04/03 13:24:29;;;;;;;11.53;3.63;;;;;;;;;;5027335;28;20147;-64
2023/04/03 13:26:56;;;;;;;8.23;4.57;;;;;;;;;;5026917;28;20037;-64
2023/04/03 13:29:31;;;;;;;7.63;4.03;;;;;;;;;;5032310;28;20056;-64
2023/04/03 13:31:58;;;;;;;5.30;3.83;;;;;;;;;;5012901;28;20037;-64
2023/04/03 13:34:27;;;;;;;7.07;3.27;;;;;;;;;;5012318;28;20512;-64
2023/04/03 13:36:54;;;;;;;8.33;2.77;;;;;;;;;;5011654;28;20053;-64
2023/04/03 13:39:24;;;;;;;5.10;3.57;;;;;;;;;;5012037;28;20029;-63
2023/04/03 13:41:52;;;;;;;8.23;3.93;;;;;;;;;;5021685;28;20029;-64
2023/04/03 13:44:30;;;;;;;5.73;3.57;;;;;;;;;;5027063;28;20468;-63
2023/04/03 13:46:58;;;;;;;7.43;3.03;;;;;;;;;;5007431;28;20037;-63
2023/04/03 13:49:33;;;;;;;5.73;3.40;;;;;;;;;;5007205;28;20026;-64
2023/04/03 13:52:01;;;;;;;7.53;4.03;;;;;;;;;;5012229;28;20021;-63
2023/04/03 13:54:33;;;;;;;6.47;2.37;;;;;;;;;;5012347;28;20018;-64
2023/04/03 13:57:01;;;;;;;7.43;3.53;;;;;;;;;;5030533;28;20495;-64
2023/04/03 13:59:35;;;;;;;3.53;2.70;;;;;;;;;;5032024;28;20082;-64
2023/04/03 14:02:05;;;;;;;9.52;4.68;;;;;;;;;;5028701;28;20025;-64
2023/04/03 14:04:33;;;;;;;24.03;4.43;;;;;;;;;;5026901;28;20187;-64
2023/04/03 14:07:00;;;;;;;4.10;2.83;;;;;;;;;;5026353;28;20038;-64
2023/04/03 14:09:28;;;;;;;5.47;3.47;;;;;;;;;;5026652;28;20570;-64
2023/04/03 14:11:57;;;;;;;5.20;3.40;;;;;;;;;;5023953;28;20517;-64
2023/04/03 14:14:27;;;;;;;5.90;3.47;;;;;;;;;;5022106;28;20025;-64
2023/04/03 14:16:59;;;;;;;6.87;3.73;;;;;;;;;;5025995;28;20547;-65
2023/04/03 14:19:33;;;;;;;8.70;4.60;;;;;;;;;;5012408;28;20172;-64
2023/04/03 14:22:01;;;;;;;5.55;3.45;;;;;;;;;;5018813;28;20029;-64
2023/04/03 14:24:28;;;;;;;12.50;4.07;;;;;;;;;;5030247;28;20547;-63
2023/04/03 14:26:55;;;;;;;17.07;3.83;;;;;;;;;;5026098;28;20060;-63
2023/04/03 14:29:22;;;;;;;6.93;2.40;;;;;;;;;;5027042;28;20030;-64
2023/04/03 14:31:50;;;;;;;5.10;3.23;;;;;;;;;;5026984;28;20049;-64
2023/04/03 14:34:17;;;;;;;5.13;2.73;;;;;;;;;;5027378;28;20060;-64
2023/04/03 14:36:46;;;;;;;4.60;3.43;;;;;;;;;;5028894;28;20121;-64
2023/04/03 14:39:18;;;;;;;3.80;3.10;;;;;;;;;;5011798;28;20628;-64
2023/04/03 14:41:45;;;;;;;7.57;3.70;;;;;;;;;;5012266;28;20058;-65
2023/04/03 14:44:12;;;;;;;7.10;3.93;;;;;;;;;;5012094;28;20543;-64
2023/04/03 14:46:40;;;;;;;5.00;3.00;;;;;;;;;;5010839;28;20037;-64
2023/04/03 14:49:14;;;;;;;4.50;2.57;;;;;;;;;;5023974;28;20121;-65
2023/04/03 14:51:40;;;;;;;4.57;3.20;;;;;;;;;;5010804;28;20382;-65
2023/04/03 14:54:12;;;;;;;4.77;3.20;;;;;;;;;;5010393;28;20080;-64
2023/04/03 14:56:39;;;;;;;4.83;3.43;;;;;;;;;;5011337;28;20026;-64